sensor_id;sensor_type;location;lat;lon;timestamp;P1;durP1;ratioP1;P2;durP2;ratioP2
15381;SDS011;7789;51.364;12.358;2022-12-29T00:04:05;1.20;;;0.80;;
15381;SDS011;7789;51.364;12.358;2022-12-29T00:09:16;1.37;;;0.87;;
15381;SDS011;7789;51.364;12.358;2022-12-29T00:14:29;0.80;;;0.70;;
15381;SDS011;7789;51.364;12.358;2022-12-29T00:20:01;1.07;;;0.83;;
15381;SDS011;7789;51.364;12.358;2022-12-29T00:25:24;1.90;;;1.00;;
15381;SDS011;7789;51.364;12.358;2022-12-29T00:30:47;1.97;;;0.90;;
15381;SDS011;7789;51.364;12.358;2022-12-29T00:36:10;1.70;;;0.80;;
15381;SDS011;7789;51.364;12.358;2022-12-29T00:41:19;0.83;;;0.80;;
15381;SDS011;7789;51.364;12.358;2022-12-29T00:46:43;1.27;;;0.80;;
15381;SDS011;7789;51.364;12.358;2022-12-29T00:51:52;2.90;;;0.80;;
15381;SDS011;7789;51.364;12.358;2022-12-29T00:57:02;1.63;;;0.93;;
15381;SDS011;7789;51.364;12.358;2022-12-29T01:02:20;1.73;;;1.07;;
15381;SDS011;7789;51.364;12.358;2022-12-29T01:07:25;1.63;;;0.90;;
15381;SDS011;7789;51.364;12.358;2022-12-29T01:12:30;2.10;;;1.20;;
15381;SDS011;7789;51.364;12.358;2022-12-29T01:17:55;0.97;;;0.87;;
15381;SDS011;7789;51.364;12.358;2022-12-29T01:23:14;1.27;;;0.80;;
15381;SDS011;7789;51.364;12.358;2022-12-29T01:28:22;1.67;;;1.03;;
15381;SDS011;7789;51.364;12.358;2022-12-29T01:33:35;1.30;;;0.90;;
15381;SDS011;7789;51.364;12.358;2022-12-29T01:38:41;1.33;;;0.80;;
15381;SDS011;7789;51.364;12.358;2022-12-29T01:43:47;0.77;;;0.77;;
15381;SDS011;7789;51.364;12.358;2022-12-29T01:49:11;1.97;;;1.00;;
15381;SDS011;7789;51.364;12.358;2022-12-29T01:54:25;2.77;;;1.17;;
15381;SDS011;7789;51.364;12.358;2022-12-29T01:59:43;3.17;;;1.00;;
15381;SDS011;7789;51.364;12.358;2022-12-29T02:04:59;1.57;;;0.87;;
15381;SDS011;7789;51.364;12.358;2022-12-29T02:10:10;2.50;;;1.03;;
15381;SDS011;7789;51.364;12.358;2022-12-29T02:15:26;2.37;;;0.80;;
15381;SDS011;7789;51.364;12.358;2022-12-29T02:21:05;1.73;;;0.90;;
15381;SDS011;7789;51.364;12.358;2022-12-29T02:26:35;2.17;;;0.73;;
15381;SDS011;7789;51.364;12.358;2022-12-29T02:32:02;1.17;;;0.83;;
15381;SDS011;7789;51.364;12.358;2022-12-29T02:37:12;1.40;;;0.97;;
15381;SDS011;7789;51.364;12.358;2022-12-29T02:42:30;1.27;;;0.90;;
15381;SDS011;7789;51.364;12.358;2022-12-29T02:47:46;1.50;;;1.10;;
15381;SDS011;7789;51.364;12.358;2022-12-29T02:52:59;1.13;;;0.73;;
15381;SDS011;7789;51.364;12.358;2022-12-29T02:58:25;1.37;;;0.93;;
15381;SDS011;7789;51.364;12.358;2022-12-29T03:03:39;5.63;;;1.27;;
15381;SDS011;7789;51.364;12.358;2022-12-29T03:08:59;2.63;;;0.90;;
15381;SDS011;7789;51.364;12.358;2022-12-29T03:14:23;1.83;;;1.00;;
15381;SDS011;7789;51.364;12.358;2022-12-29T03:19:59;3.97;;;1.07;;
15381;SDS011;7789;51.364;12.358;2022-12-29T03:25:18;1.10;;;0.80;;
15381;SDS011;7789;51.364;12.358;2022-12-29T03:30:47;1.27;;;1.00;;
15381;SDS011;7789;51.364;12.358;2022-12-29T03:41:28;4.57;;;0.90;;
15381;SDS011;7789;51.364;12.358;2022-12-29T03:46:38;2.20;;;0.93;;
15381;SDS011;7789;51.364;12.358;2022-12-29T03:51:44;2.00;;;0.80;;
15381;SDS011;7789;51.364;12.358;2022-12-29T03:56:57;1.10;;;1.00;;
15381;SDS011;7789;51.364;12.358;2022-12-29T04:02:11;1.80;;;0.97;;
15381;SDS011;7789;51.364;12.358;2022-12-29T04:07:28;2.40;;;0.80;;
15381;SDS011;7789;51.364;12.358;2022-12-29T04:12:52;1.40;;;0.90;;
15381;SDS011;7789;51.364;12.358;2022-12-29T04:18:04;1.60;;;1.07;;
15381;SDS011;7789;51.364;12.358;2022-12-29T04:23:19;1.97;;;0.87;;
15381;SDS011;7789;51.364;12.358;2022-12-29T04:28:31;1.00;;;0.90;;
15381;SDS011;7789;51.364;12.358;2022-12-29T04:33:44;1.17;;;1.00;;
15381;SDS011;7789;51.364;12.358;2022-12-29T04:38:52;2.27;;;1.00;;
15381;SDS011;7789;51.364;12.358;2022-12-29T04:43:56;1.30;;;0.80;;
15381;SDS011;7789;51.364;12.358;2022-12-29T04:49:08;1.47;;;0.80;;
15381;SDS011;7789;51.364;12.358;2022-12-29T04:54:28;1.00;;;0.80;;
15381;SDS011;7789;51.364;12.358;2022-12-29T04:59:36;1.20;;;1.00;;
15381;SDS011;7789;51.364;12.358;2022-12-29T05:04:43;1.73;;;0.73;;
15381;SDS011;7789;51.364;12.358;2022-12-29T05:09:52;0.90;;;0.70;;
15381;SDS011;7789;51.364;12.358;2022-12-29T05:15:03;1.03;;;0.80;;
15381;SDS011;7789;51.364;12.358;2022-12-29T05:20:16;2.07;;;0.97;;
15381;SDS011;7789;51.364;12.358;2022-12-29T05:30:59;1.23;;;0.80;;
15381;SDS011;7789;51.364;12.358;2022-12-29T05:36:08;4.23;;;0.80;;
15381;SDS011;7789;51.364;12.358;2022-12-29T05:41:35;1.67;;;0.87;;
15381;SDS011;7789;51.364;12.358;2022-12-29T05:46:41;2.50;;;1.00;;
15381;SDS011;7789;51.364;12.358;2022-12-29T05:51:58;2.77;;;0.90;;
15381;SDS011;7789;51.364;12.358;2022-12-29T06:02:34;1.53;;;1.10;;
15381;SDS011;7789;51.364;12.358;2022-12-29T06:07:53;2.20;;;1.00;;
15381;SDS011;7789;51.364;12.358;2022-12-29T06:13:00;2.30;;;1.10;;
15381;SDS011;7789;51.364;12.358;2022-12-29T06:18:11;1.93;;;1.10;;
15381;SDS011;7789;51.364;12.358;2022-12-29T06:23:25;1.77;;;0.83;;
15381;SDS011;7789;51.364;12.358;2022-12-29T06:28:33;1.80;;;0.93;;
15381;SDS011;7789;51.364;12.358;2022-12-29T06:33:56;2.50;;;1.00;;
15381;SDS011;7789;51.364;12.358;2022-12-29T06:39:10;1.77;;;0.83;;
15381;SDS011;7789;51.364;12.358;2022-12-29T06:44:17;1.30;;;0.67;;
15381;SDS011;7789;51.364;12.358;2022-12-29T06:49:29;1.17;;;0.63;;
15381;SDS011;7789;51.364;12.358;2022-12-29T06:54:43;1.33;;;0.80;;
15381;SDS011;7789;51.364;12.358;2022-12-29T06:59:51;2.27;;;1.00;;
15381;SDS011;7789;51.364;12.358;2022-12-29T07:05:01;1.67;;;0.90;;
15381;SDS011;7789;51.364;12.358;2022-12-29T07:10:13;1.67;;;0.93;;
15381;SDS011;7789;51.364;12.358;2022-12-29T07:15:27;1.07;;;0.77;;
15381;SDS011;7789;51.364;12.358;2022-12-29T07:20:43;1.97;;;0.80;;
15381;SDS011;7789;51.364;12.358;2022-12-29T07:25:58;0.87;;;0.70;;
15381;SDS011;7789;51.364;12.358;2022-12-29T07:31:19;1.67;;;0.80;;
15381;SDS011;7789;51.364;12.358;2022-12-29T07:36:27;2.10;;;0.90;;
15381;SDS011;7789;51.364;12.358;2022-12-29T07:41:35;1.13;;;0.73;;
15381;SDS011;7789;51.364;12.358;2022-12-29T07:46:45;1.23;;;0.80;;
15381;SDS011;7789;51.364;12.358;2022-12-29T07:52:03;2.97;;;0.93;;
15381;SDS011;7789;51.364;12.358;2022-12-29T07:57:15;2.50;;;1.17;;
15381;SDS011;7789;51.364;12.358;2022-12-29T08:02:34;3.83;;;1.00;;
15381;SDS011;7789;51.364;12.358;2022-12-29T08:07:42;1.17;;;0.90;;
15381;SDS011;7789;51.364;12.358;2022-12-29T08:12:47;1.43;;;0.80;;
15381;SDS011;7789;51.364;12.358;2022-12-29T08:17:56;2.13;;;0.93;;
15381;SDS011;7789;51.364;12.358;2022-12-29T08:23:00;2.60;;;0.90;;
15381;SDS011;7789;51.364;12.358;2022-12-29T08:28:04;1.40;;;0.80;;
15381;SDS011;7789;51.364;12.358;2022-12-29T08:33:09;3.37;;;1.00;;
15381;SDS011;7789;51.364;12.358;2022-12-29T08:38:14;1.87;;;0.90;;
15381;SDS011;7789;51.364;12.358;2022-12-29T08:43:20;3.47;;;0.80;;
15381;SDS011;7789;51.364;12.358;2022-12-29T08:48:43;1.63;;;0.90;;
15381;SDS011;7789;51.364;12.358;2022-12-29T08:53:51;2.17;;;0.80;;
15381;SDS011;7789;51.364;12.358;2022-12-29T08:58:59;3.73;;;1.07;;
15381;SDS011;7789;51.364;12.358;2022-12-29T09:04:05;1.20;;;0.97;;
15381;SDS011;7789;51.364;12.358;2022-12-29T09:09:18;1.07;;;0.70;;
15381;SDS011;7789;51.364;12.358;2022-12-29T09:14:23;3.10;;;1.23;;
15381;SDS011;7789;51.364;12.358;2022-12-29T09:19:29;2.60;;;1.13;;
15381;SDS011;7789;51.364;12.358;2022-12-29T09:24:36;1.77;;;1.10;;
15381;SDS011;7789;51.364;12.358;2022-12-29T09:29:49;2.60;;;1.00;;
15381;SDS011;7789;51.364;12.358;2022-12-29T09:35:04;2.67;;;0.90;;
15381;SDS011;7789;51.364;12.358;2022-12-29T09:40:13;1.25;;;0.80;;
15381;SDS011;7789;51.364;12.358;2022-12-29T09:45:27;0.90;;;0.70;;
15381;SDS011;7789;51.364;12.358;2022-12-29T09:50:41;1.20;;;0.65;;
15381;SDS011;7789;51.364;12.358;2022-12-29T09:55:53;1.33;;;0.82;;
15381;SDS011;7789;51.364;12.358;2022-12-29T10:01:05;2.13;;;1.00;;
15381;SDS011;7789;51.364;12.358;2022-12-29T10:06:19;2.83;;;0.90;;
15381;SDS011;7789;51.364;12.358;2022-12-29T10:11:31;1.60;;;0.82;;
15381;SDS011;7789;51.364;12.358;2022-12-29T10:16:54;2.55;;;0.90;;
15381;SDS011;7789;51.364;12.358;2022-12-29T10:22:16;0.73;;;0.60;;
15381;SDS011;7789;51.364;12.358;2022-12-29T10:27:30;2.92;;;0.90;;
15381;SDS011;7789;51.364;12.358;2022-12-29T10:32:39;1.30;;;0.73;;
15381;SDS011;7789;51.364;12.358;2022-12-29T10:37:53;2.17;;;0.90;;
15381;SDS011;7789;51.364;12.358;2022-12-29T10:43:11;1.88;;;0.98;;
15381;SDS011;7789;51.364;12.358;2022-12-29T10:48:25;1.50;;;1.00;;
15381;SDS011;7789;51.364;12.358;2022-12-29T10:53:40;1.80;;;0.90;;
15381;SDS011;7789;51.364;12.358;2022-12-29T10:58:49;0.98;;;0.70;;
15381;SDS011;7789;51.364;12.358;2022-12-29T11:04:10;1.25;;;0.70;;
15381;SDS011;7789;51.364;12.358;2022-12-29T11:09:32;2.88;;;0.93;;
15381;SDS011;7789;51.364;12.358;2022-12-29T11:20:30;3.05;;;1.20;;
15381;SDS011;7789;51.364;12.358;2022-12-29T11:25:46;4.68;;;0.90;;
15381;SDS011;7789;51.364;12.358;2022-12-29T11:31:17;1.50;;;0.60;;
15381;SDS011;7789;51.364;12.358;2022-12-29T11:36:22;0.90;;;0.70;;
15381;SDS011;7789;51.364;12.358;2022-12-29T11:47:13;1.38;;;0.73;;
15381;SDS011;7789;51.364;12.358;2022-12-29T11:52:31;1.42;;;0.80;;
15381;SDS011;7789;51.364;12.358;2022-12-29T11:57:49;3.95;;;0.95;;
15381;SDS011;7789;51.364;12.358;2022-12-29T12:03:00;1.95;;;0.85;;
15381;SDS011;7789;51.364;12.358;2022-12-29T12:08:10;2.75;;;0.90;;
15381;SDS011;7789;51.364;12.358;2022-12-29T12:13:27;1.02;;;0.77;;
15381;SDS011;7789;51.364;12.358;2022-12-29T12:18:42;1.67;;;0.68;;
15381;SDS011;7789;51.364;12.358;2022-12-29T12:23:57;4.32;;;1.00;;
15381;SDS011;7789;51.364;12.358;2022-12-29T12:29:16;0.85;;;0.70;;
15381;SDS011;7789;51.364;12.358;2022-12-29T12:34:35;1.27;;;0.70;;
15381;SDS011;7789;51.364;12.358;2022-12-29T12:40:02;3.90;;;0.80;;
15381;SDS011;7789;51.364;12.358;2022-12-29T12:45:42;2.65;;;0.75;;
15381;SDS011;7789;51.364;12.358;2022-12-29T12:51:03;0.80;;;0.70;;
15381;SDS011;7789;51.364;12.358;2022-12-29T12:56:26;1.75;;;0.80;;
15381;SDS011;7789;51.364;12.358;2022-12-29T13:01:49;0.98;;;0.75;;
15381;SDS011;7789;51.364;12.358;2022-12-29T13:07:05;3.13;;;1.17;;
15381;SDS011;7789;51.364;12.358;2022-12-29T13:12:27;1.75;;;1.08;;
15381;SDS011;7789;51.364;12.358;2022-12-29T13:17:43;0.98;;;0.85;;
15381;SDS011;7789;51.364;12.358;2022-12-29T13:23:02;2.08;;;1.35;;
15381;SDS011;7789;51.364;12.358;2022-12-29T13:28:19;2.78;;;0.90;;
15381;SDS011;7789;51.364;12.358;2022-12-29T13:33:42;1.42;;;0.90;;
15381;SDS011;7789;51.364;12.358;2022-12-29T13:38:56;1.80;;;1.00;;
15381;SDS011;7789;51.364;12.358;2022-12-29T13:44:09;2.75;;;1.00;;
15381;SDS011;7789;51.364;12.358;2022-12-29T13:49:39;3.22;;;1.15;;
15381;SDS011;7789;51.364;12.358;2022-12-29T13:54:52;1.98;;;1.08;;
15381;SDS011;7789;51.364;12.358;2022-12-29T14:00:07;1.27;;;1.00;;
15381;SDS011;7789;51.364;12.358;2022-12-29T14:05:28;2.97;;;1.02;;
15381;SDS011;7789;51.364;12.358;2022-12-29T14:10:35;1.08;;;0.80;;
15381;SDS011;7789;51.364;12.358;2022-12-29T14:15:44;2.55;;;0.55;;
15381;SDS011;7789;51.364;12.358;2022-12-29T14:20:57;1.30;;;0.82;;
15381;SDS011;7789;51.364;12.358;2022-12-29T14:26:15;1.17;;;0.80;;
15381;SDS011;7789;51.364;12.358;2022-12-29T14:31:33;1.23;;;0.70;;
15381;SDS011;7789;51.364;12.358;2022-12-29T14:37:00;0.90;;;0.60;;
15381;SDS011;7789;51.364;12.358;2022-12-29T14:42:13;0.85;;;0.50;;
15381;SDS011;7789;51.364;12.358;2022-12-29T14:47:32;0.90;;;0.80;;
15381;SDS011;7789;51.364;12.358;2022-12-29T14:52:48;0.65;;;0.50;;
15381;SDS011;7789;51.364;12.358;2022-12-29T14:58:04;0.52;;;0.40;;
15381;SDS011;7789;51.364;12.358;2022-12-29T15:03:17;0.88;;;0.52;;
15381;SDS011;7789;51.364;12.358;2022-12-29T15:08:29;1.25;;;0.70;;
15381;SDS011;7789;51.364;12.358;2022-12-29T15:13:45;0.68;;;0.50;;
15381;SDS011;7789;51.364;12.358;2022-12-29T15:19:03;0.87;;;0.50;;
15381;SDS011;7789;51.364;12.358;2022-12-29T15:24:28;1.65;;;0.50;;
15381;SDS011;7789;51.364;12.358;2022-12-29T15:29:43;1.80;;;0.80;;
15381;SDS011;7789;51.364;12.358;2022-12-29T15:34:58;0.90;;;0.80;;
15381;SDS011;7789;51.364;12.358;2022-12-29T15:40:19;1.67;;;0.60;;
15381;SDS011;7789;51.364;12.358;2022-12-29T15:45:32;2.42;;;0.90;;
15381;SDS011;7789;51.364;12.358;2022-12-29T15:50:48;2.60;;;1.10;;
15381;SDS011;7789;51.364;12.358;2022-12-29T15:55:59;5.07;;;1.70;;
15381;SDS011;7789;51.364;12.358;2022-12-29T16:01:16;1.60;;;1.10;;
15381;SDS011;7789;51.364;12.358;2022-12-29T16:06:26;0.80;;;0.73;;
15381;SDS011;7789;51.364;12.358;2022-12-29T16:11:50;1.03;;;0.70;;
15381;SDS011;7789;51.364;12.358;2022-12-29T16:17:04;1.00;;;0.63;;
15381;SDS011;7789;51.364;12.358;2022-12-29T16:22:12;1.33;;;0.70;;
15381;SDS011;7789;51.364;12.358;2022-12-29T16:27:33;2.83;;;1.90;;
15381;SDS011;7789;51.364;12.358;2022-12-29T16:32:48;3.50;;;1.40;;
15381;SDS011;7789;51.364;12.358;2022-12-29T16:38:14;2.00;;;0.93;;
15381;SDS011;7789;51.364;12.358;2022-12-29T16:43:24;1.37;;;0.97;;
15381;SDS011;7789;51.364;12.358;2022-12-29T16:48:34;1.43;;;1.00;;
15381;SDS011;7789;51.364;12.358;2022-12-29T16:54:02;3.03;;;1.33;;
15381;SDS011;7789;51.364;12.358;2022-12-29T17:05:11;3.73;;;2.03;;
15381;SDS011;7789;51.364;12.358;2022-12-29T17:10:16;5.30;;;2.27;;
15381;SDS011;7789;51.364;12.358;2022-12-29T17:15:53;3.70;;;2.20;;
15381;SDS011;7789;51.364;12.358;2022-12-29T17:21:00;3.10;;;1.83;;
15381;SDS011;7789;51.364;12.358;2022-12-29T17:26:08;2.23;;;1.50;;
15381;SDS011;7789;51.364;12.358;2022-12-29T17:31:41;5.47;;;1.93;;
15381;SDS011;7789;51.364;12.358;2022-12-29T17:36:56;2.00;;;1.60;;
15381;SDS011;7789;51.364;12.358;2022-12-29T17:42:08;4.37;;;3.07;;
15381;SDS011;7789;51.364;12.358;2022-12-29T17:47:23;3.47;;;2.53;;
15381;SDS011;7789;51.364;12.358;2022-12-29T17:52:31;3.20;;;1.93;;
15381;SDS011;7789;51.364;12.358;2022-12-29T17:57:50;2.60;;;1.57;;
15381;SDS011;7789;51.364;12.358;2022-12-29T18:03:01;3.67;;;1.80;;
15381;SDS011;7789;51.364;12.358;2022-12-29T18:08:13;3.63;;;2.40;;
15381;SDS011;7789;51.364;12.358;2022-12-29T18:13:24;4.57;;;1.60;;
15381;SDS011;7789;51.364;12.358;2022-12-29T18:18:48;3.07;;;2.03;;
15381;SDS011;7789;51.364;12.358;2022-12-29T18:23:56;3.23;;;1.90;;
15381;SDS011;7789;51.364;12.358;2022-12-29T18:29:03;2.43;;;1.40;;
15381;SDS011;7789;51.364;12.358;2022-12-29T18:34:13;3.20;;;1.97;;
15381;SDS011;7789;51.364;12.358;2022-12-29T18:39:23;2.70;;;1.40;;
15381;SDS011;7789;51.364;12.358;2022-12-29T18:44:32;2.73;;;1.33;;
15381;SDS011;7789;51.364;12.358;2022-12-29T18:49:46;3.57;;;1.60;;
15381;SDS011;7789;51.364;12.358;2022-12-29T18:54:52;4.20;;;2.23;;
15381;SDS011;7789;51.364;12.358;2022-12-29T18:59:58;2.53;;;1.70;;
15381;SDS011;7789;51.364;12.358;2022-12-29T19:05:15;4.23;;;2.03;;
15381;SDS011;7789;51.364;12.358;2022-12-29T19:10:26;2.20;;;1.80;;
15381;SDS011;7789;51.364;12.358;2022-12-29T19:15:31;2.23;;;1.70;;
15381;SDS011;7789;51.364;12.358;2022-12-29T19:20:44;2.93;;;1.60;;
15381;SDS011;7789;51.364;12.358;2022-12-29T19:25:57;3.70;;;2.40;;
15381;SDS011;7789;51.364;12.358;2022-12-29T19:31:07;4.77;;;2.33;;
15381;SDS011;7789;51.364;12.358;2022-12-29T19:36:14;2.93;;;2.03;;
15381;SDS011;7789;51.364;12.358;2022-12-29T19:41:19;6.23;;;3.07;;
15381;SDS011;7789;51.364;12.358;2022-12-29T19:46:24;4.43;;;2.43;;
15381;SDS011;7789;51.364;12.358;2022-12-29T19:51:33;3.60;;;2.13;;
15381;SDS011;7789;51.364;12.358;2022-12-29T19:56:51;4.13;;;3.10;;
15381;SDS011;7789;51.364;12.358;2022-12-29T20:02:10;5.77;;;2.77;;
15381;SDS011;7789;51.364;12.358;2022-12-29T20:07:24;5.50;;;3.80;;
15381;SDS011;7789;51.364;12.358;2022-12-29T20:12:28;6.80;;;2.30;;
15381;SDS011;7789;51.364;12.358;2022-12-29T20:17:40;3.80;;;2.00;;
15381;SDS011;7789;51.364;12.358;2022-12-29T20:28:31;4.33;;;2.63;;
15381;SDS011;7789;51.364;12.358;2022-12-29T20:33:41;2.37;;;1.63;;
15381;SDS011;7789;51.364;12.358;2022-12-29T20:38:57;3.53;;;2.10;;
15381;SDS011;7789;51.364;12.358;2022-12-29T20:44:06;2.30;;;1.80;;
15381;SDS011;7789;51.364;12.358;2022-12-29T20:49:22;3.50;;;2.53;;
15381;SDS011;7789;51.364;12.358;2022-12-29T20:54:30;4.43;;;2.87;;
15381;SDS011;7789;51.364;12.358;2022-12-29T20:59:40;4.63;;;2.33;;
15381;SDS011;7789;51.364;12.358;2022-12-29T21:04:46;2.83;;;2.20;;
15381;SDS011;7789;51.364;12.358;2022-12-29T21:10:16;4.93;;;2.70;;
15381;SDS011;7789;51.364;12.358;2022-12-29T21:15:22;4.07;;;2.07;;
15381;SDS011;7789;51.364;12.358;2022-12-29T21:20:32;5.30;;;3.00;;
15381;SDS011;7789;51.364;12.358;2022-12-29T21:26:06;3.93;;;2.00;;
15381;SDS011;7789;51.364;12.358;2022-12-29T21:31:23;2.70;;;1.83;;
15381;SDS011;7789;51.364;12.358;2022-12-29T21:36:28;3.33;;;1.90;;
15381;SDS011;7789;51.364;12.358;2022-12-29T21:41:33;3.70;;;1.47;;
15381;SDS011;7789;51.364;12.358;2022-12-29T21:46:38;4.07;;;1.77;;
15381;SDS011;7789;51.364;12.358;2022-12-29T21:51:42;7.17;;;1.80;;
15381;SDS011;7789;51.364;12.358;2022-12-29T21:56:53;5.73;;;2.10;;
15381;SDS011;7789;51.364;12.358;2022-12-29T22:01:57;3.73;;;1.60;;
15381;SDS011;7789;51.364;12.358;2022-12-29T22:07:18;2.73;;;1.43;;
15381;SDS011;7789;51.364;12.358;2022-12-29T22:12:41;3.33;;;1.50;;
15381;SDS011;7789;51.364;12.358;2022-12-29T22:18:03;3.40;;;1.30;;
15381;SDS011;7789;51.364;12.358;2022-12-29T22:23:07;6.17;;;1.50;;
15381;SDS011;7789;51.364;12.358;2022-12-29T22:28:12;2.10;;;1.10;;
15381;SDS011;7789;51.364;12.358;2022-12-29T22:33:16;3.10;;;1.50;;
15381;SDS011;7789;51.364;12.358;2022-12-29T22:38:19;3.23;;;1.53;;
15381;SDS011;7789;51.364;12.358;2022-12-29T22:43:24;3.93;;;1.63;;
15381;SDS011;7789;51.364;12.358;2022-12-29T22:48:30;4.33;;;1.57;;
15381;SDS011;7789;51.364;12.358;2022-12-29T22:53:34;4.97;;;1.70;;
15381;SDS011;7789;51.364;12.358;2022-12-29T22:58:39;3.60;;;1.50;;
15381;SDS011;7789;51.364;12.358;2022-12-29T23:03:43;4.47;;;1.67;;
15381;SDS011;7789;51.364;12.358;2022-12-29T23:08:47;3.17;;;1.63;;
15381;SDS011;7789;51.364;12.358;2022-12-29T23:13:52;3.70;;;1.70;;
15381;SDS011;7789;51.364;12.358;2022-12-29T23:18:55;3.53;;;1.60;;
15381;SDS011;7789;51.364;12.358;2022-12-29T23:23:59;4.27;;;1.60;;
15381;SDS011;7789;51.364;12.358;2022-12-29T23:29:07;4.80;;;1.80;;
15381;SDS011;7789;51.364;12.358;2022-12-29T23:34:13;3.33;;;1.43;;
15381;SDS011;7789;51.364;12.358;2022-12-29T23:39:18;3.30;;;1.10;;
15381;SDS011;7789;51.364;12.358;2022-12-29T23:44:25;3.07;;;1.27;;
15381;SDS011;7789;51.364;12.358;2022-12-29T23:49:28;2.33;;;0.93;;
15381;SDS011;7789;51.364;12.358;2022-12-29T23:54:31;3.23;;;1.47;;
15381;SDS011;7789;51.364;12.358;2022-12-29T23:59:36;2.57;;;1.20;;
